aviador You're here:

KATY Decoded Metar

WATERTOWN in SD, USA
Report Time2018-01-21 18:10:00
UTC Time2018-01-21 18:36:36
Flight Rules mvfr MVFR
Wind360° at 08 kt
W.Decomp.*RWY 35: 8.0 kt HW 0.6 kt RCW
RWY 30: 4.7 kt HW 6.5 kt RCW
Visibility6437 m
Phenomena:Light Snow
Mist
Clouds:Overcast 026 Hf
Expected CloudBase > 800 ft AGL from Temp-Dew spread
Ceiling2,600 ft
Temp00°C (ISA -12)
Dew Point-2°C (87% RH)
AAT-5.1°C
QNH1016 hPa
Density Alt318 ft
Elevation1,745 ft
Report Wrong Elevation
Raw Report
KATY 211810Z AUTO 36008KT 4SM -SN BR OVC026 00/M02 A2999 RMK AO2
SNB1754 P0000 T00001022=

Extra information for KATY:More info

Metar Taf Metar & Taf Last 4 Metars F.Rules Stats Wind Profile Meteogram Temp Stats Airport Information Weather charts Add Link Nearby VenuesMetar ALERT Operation Metar Decoded Social comments

AIRNAV info for KATY